sensor_id;sensor_type;location;lat;lon;timestamp;pressure;altitude;pressure_sealevel;temperature;humidity
3132;BME280;62090;52.330;9.104;2023-02-07T00:02:11;103631.63;;;1.07;90.24
3132;BME280;62090;52.330;9.104;2023-02-07T00:04:41;103571.25;;;0.82;89.83
3132;BME280;62090;52.330;9.104;2023-02-07T00:07:13;103562.72;;;0.73;90.05
3132;BME280;62090;52.330;9.104;2023-02-07T00:09:43;103618.19;;;1.06;90.90
3132;BME280;62090;52.330;9.104;2023-02-07T00:12:13;103569.63;;;0.83;90.94
3132;BME280;62090;52.330;9.104;2023-02-07T00:14:43;103592.91;;;1.05;90.96
3132;BME280;62090;52.330;9.104;2023-02-07T00:17:12;103587.31;;;1.07;90.82
3132;BME280;62090;52.330;9.104;2023-02-07T00:19:42;103518.31;;;0.65;91.33
3132;BME280;62090;52.330;9.104;2023-02-07T00:22:14;103586.44;;;1.07;91.17
3132;BME280;62090;52.330;9.104;2023-02-07T00:24:44;103499.38;;;0.60;90.78
3132;BME280;62090;52.330;9.104;2023-02-07T00:27:14;103588.78;;;1.05;89.60
3132;BME280;62090;52.330;9.104;2023-02-07T00:29:44;103531.34;;;0.70;91.46
3132;BME280;62090;52.330;9.104;2023-02-07T00:32:14;103515.13;;;0.59;91.48
3132;BME280;62090;52.330;9.104;2023-02-07T00:34:45;103543.00;;;0.69;90.76
3132;BME280;62090;52.330;9.104;2023-02-07T00:37:19;103526.75;;;0.66;91.26
3132;BME280;62090;52.330;9.104;2023-02-07T00:39:49;103575.63;;;0.92;90.99
3132;BME280;62090;52.330;9.104;2023-02-07T00:42:19;103581.22;;;0.90;90.81
3132;BME280;62090;52.330;9.104;2023-02-07T00:44:49;103548.88;;;0.77;91.22
3132;BME280;62090;52.330;9.104;2023-02-07T00:47:18;103509.56;;;0.62;90.48
3132;BME280;62090;52.330;9.104;2023-02-07T00:49:48;103570.97;;;0.95;90.39
3132;BME280;62090;52.330;9.104;2023-02-07T00:52:20;103563.56;;;0.97;89.96
3132;BME280;62090;52.330;9.104;2023-02-07T00:54:50;103560.56;;;0.92;89.91
3132;BME280;62090;52.330;9.104;2023-02-07T00:57:20;103516.69;;;0.43;90.26
3132;BME280;62090;52.330;9.104;2023-02-07T00:59:49;103537.28;;;0.48;90.86
3132;BME280;62090;52.330;9.104;2023-02-07T01:02:19;103537.44;;;0.49;90.94
3132;BME280;62090;52.330;9.104;2023-02-07T01:04:49;103520.78;;;0.50;90.44
3132;BME280;62090;52.330;9.104;2023-02-07T01:07:21;103578.59;;;0.81;89.47
3132;BME280;62090;52.330;9.104;2023-02-07T01:09:51;103549.91;;;0.63;89.47
3132;BME280;62090;52.330;9.104;2023-02-07T01:12:20;103546.28;;;0.68;89.05
3132;BME280;62090;52.330;9.104;2023-02-07T01:14:51;103536.78;;;0.66;89.21
3132;BME280;62090;52.330;9.104;2023-02-07T01:17:20;103516.84;;;0.52;89.23
3132;BME280;62090;52.330;9.104;2023-02-07T01:19:55;103550.94;;;0.65;88.72
3132;BME280;62090;52.330;9.104;2023-02-07T01:22:27;103554.56;;;0.60;89.09
3132;BME280;62090;52.330;9.104;2023-02-07T01:24:58;103549.22;;;0.57;88.96
3132;BME280;62090;52.330;9.104;2023-02-07T01:27:27;103551.72;;;0.57;88.63
3132;BME280;62090;52.330;9.104;2023-02-07T01:29:57;103525.69;;;0.41;88.36
3132;BME280;62090;52.330;9.104;2023-02-07T01:32:28;103505.72;;;0.27;88.42
3132;BME280;62090;52.330;9.104;2023-02-07T01:34:57;103517.50;;;0.35;88.42
3132;BME280;62090;52.330;9.104;2023-02-07T01:37:30;103513.38;;;0.35;88.31
3132;BME280;62090;52.330;9.104;2023-02-07T01:40:00;103531.97;;;0.37;88.37
3132;BME280;62090;52.330;9.104;2023-02-07T01:42:29;103536.47;;;0.33;87.59
3132;BME280;62090;52.330;9.104;2023-02-07T01:45:04;103532.59;;;0.28;88.20
3132;BME280;62090;52.330;9.104;2023-02-07T01:47:34;103536.59;;;0.19;87.98
3132;BME280;62090;52.330;9.104;2023-02-07T01:50:06;103526.09;;;0.07;88.10
3132;BME280;62090;52.330;9.104;2023-02-07T01:52:40;103522.22;;;-0.05;88.67
3132;BME280;62090;52.330;9.104;2023-02-07T01:55:14;103555.88;;;-0.03;89.41
3132;BME280;62090;52.330;9.104;2023-02-07T01:57:45;103546.31;;;-0.21;91.04
3132;BME280;62090;52.330;9.104;2023-02-07T02:00:15;103557.78;;;-0.23;90.09
3132;BME280;62090;52.330;9.104;2023-02-07T02:02:45;103558.16;;;-0.34;90.53
3132;BME280;62090;52.330;9.104;2023-02-07T02:05:16;103547.53;;;-0.62;91.92
3132;BME280;62090;52.330;9.104;2023-02-07T02:07:50;103517.91;;;-0.80;93.06
3132;BME280;62090;52.330;9.104;2023-02-07T02:10:23;103452.38;;;-1.06;92.34
3132;BME280;62090;52.330;9.104;2023-02-07T02:13:06;103539.09;;;-0.48;91.77
3132;BME280;62090;52.330;9.104;2023-02-07T02:15:44;103551.16;;;-0.30;92.12
3132;BME280;62090;52.330;9.104;2023-02-07T02:18:37;103562.25;;;-0.28;91.61
3132;BME280;62090;52.330;9.104;2023-02-07T02:21:36;103569.59;;;-0.29;92.23
3132;BME280;62090;52.330;9.104;2023-02-07T02:24:40;103572.50;;;-0.33;93.18
3132;BME280;62090;52.330;9.104;2023-02-07T02:27:27;103483.53;;;-0.74;91.37
3132;BME280;62090;52.330;9.104;2023-02-07T02:30:29;103531.25;;;-0.58;90.63
3132;BME280;62090;52.330;9.104;2023-02-07T02:33:20;103578.59;;;-0.38;92.88
3132;BME280;62090;52.330;9.104;2023-02-07T02:36:02;103534.44;;;-0.52;92.93
3132;BME280;62090;52.330;9.104;2023-02-07T02:38:41;103545.84;;;-0.40;91.85
3132;BME280;62090;52.330;9.104;2023-02-07T02:41:18;103531.03;;;-0.53;92.72
3132;BME280;62090;52.330;9.104;2023-02-07T02:43:53;103577.78;;;-0.16;93.66
3132;BME280;62090;52.330;9.104;2023-02-07T02:46:28;103546.16;;;-0.30;93.00
3132;BME280;62090;52.330;9.104;2023-02-07T02:49:04;103564.06;;;-0.27;92.67
3132;BME280;62090;52.330;9.104;2023-02-07T02:51:37;103584.13;;;-0.34;92.86
3132;BME280;62090;52.330;9.104;2023-02-07T02:54:26;103569.97;;;-0.33;92.58
3132;BME280;62090;52.330;9.104;2023-02-07T02:57:09;103570.50;;;-0.36;91.72
3132;BME280;62090;52.330;9.104;2023-02-07T02:59:57;103567.09;;;-0.36;92.39
3132;BME280;62090;52.330;9.104;2023-02-07T03:02:41;103533.38;;;-0.54;93.80
3132;BME280;62090;52.330;9.104;2023-02-07T03:05:28;103551.56;;;-0.41;93.46
3132;BME280;62090;52.330;9.104;2023-02-07T03:08:11;103526.25;;;-0.58;94.04
3132;BME280;62090;52.330;9.104;2023-02-07T03:10:48;103591.19;;;-0.16;94.40
3132;BME280;62090;52.330;9.104;2023-02-07T03:13:25;103566.19;;;-0.30;93.33
3132;BME280;62090;52.330;9.104;2023-02-07T03:16:03;103541.91;;;-0.38;93.19
3132;BME280;62090;52.330;9.104;2023-02-07T03:18:43;103539.72;;;-0.28;92.90
3132;BME280;62090;52.330;9.104;2023-02-07T03:21:25;103553.97;;;-0.20;92.23
3132;BME280;62090;52.330;9.104;2023-02-07T03:24:01;103552.19;;;-0.21;91.42
3132;BME280;62090;52.330;9.104;2023-02-07T03:26:33;103568.28;;;-0.12;90.68
3132;BME280;62090;52.330;9.104;2023-02-07T03:29:05;103495.75;;;-0.47;89.94
3132;BME280;62090;52.330;9.104;2023-02-07T03:31:39;103528.44;;;-0.31;89.63
3132;BME280;62090;52.330;9.104;2023-02-07T03:34:13;103496.13;;;-0.44;89.70
3132;BME280;62090;52.330;9.104;2023-02-07T03:36:52;103455.44;;;-0.71;89.45
3132;BME280;62090;52.330;9.104;2023-02-07T03:39:23;103468.66;;;-0.65;90.50
3132;BME280;62090;52.330;9.104;2023-02-07T03:41:57;103350.22;;;-1.31;89.92
3132;BME280;62090;52.330;9.104;2023-02-07T03:44:29;103478.13;;;-0.63;90.77
3132;BME280;62090;52.330;9.104;2023-02-07T03:47:01;103521.81;;;-0.31;91.63
3132;BME280;62090;52.330;9.104;2023-02-07T03:49:31;103482.63;;;-0.67;91.47
3132;BME280;62090;52.330;9.104;2023-02-07T03:52:03;103512.59;;;-0.46;92.07
3132;BME280;62090;52.330;9.104;2023-02-07T03:54:33;103514.19;;;-0.47;92.35
3132;BME280;62090;52.330;9.104;2023-02-07T03:57:03;103508.97;;;-0.34;92.67
3132;BME280;62090;52.330;9.104;2023-02-07T03:59:33;103530.38;;;-0.22;91.76
3132;BME280;62090;52.330;9.104;2023-02-07T04:02:02;103460.03;;;-0.53;92.32
3132;BME280;62090;52.330;9.104;2023-02-07T04:04:32;103541.91;;;-0.01;92.24
3132;BME280;62090;52.330;9.104;2023-02-07T04:07:04;103475.16;;;-0.37;91.39
3132;BME280;62090;52.330;9.104;2023-02-07T04:09:34;103520.00;;;-0.25;91.34
3132;BME280;62090;52.330;9.104;2023-02-07T04:12:04;103487.19;;;-0.49;91.87
3132;BME280;62090;52.330;9.104;2023-02-07T04:14:34;103545.38;;;-0.15;91.09
3132;BME280;62090;52.330;9.104;2023-02-07T04:17:04;103522.47;;;-0.55;90.66
3132;BME280;62090;52.330;9.104;2023-02-07T04:19:33;103496.63;;;-0.83;91.09
3132;BME280;62090;52.330;9.104;2023-02-07T04:22:06;103531.06;;;-0.60;90.83
3132;BME280;62090;52.330;9.104;2023-02-07T04:24:36;103536.78;;;-0.61;91.79
3132;BME280;62090;52.330;9.104;2023-02-07T04:27:06;103442.69;;;-1.10;91.40
3132;BME280;62090;52.330;9.104;2023-02-07T04:29:36;103469.25;;;-0.82;90.82
3132;BME280;62090;52.330;9.104;2023-02-07T04:32:05;103521.91;;;-0.52;90.55
3132;BME280;62090;52.330;9.104;2023-02-07T04:34:35;103518.34;;;-0.54;91.58
3132;BME280;62090;52.330;9.104;2023-02-07T04:37:07;103527.59;;;-0.39;91.62
3132;BME280;62090;52.330;9.104;2023-02-07T04:39:37;103515.06;;;-0.39;91.84
3132;BME280;62090;52.330;9.104;2023-02-07T04:42:07;103484.34;;;-0.52;91.08
3132;BME280;62090;52.330;9.104;2023-02-07T04:44:37;103509.66;;;-0.28;91.27
3132;BME280;62090;52.330;9.104;2023-02-07T04:47:06;103463.59;;;-0.51;90.97
3132;BME280;62090;52.330;9.104;2023-02-07T04:49:36;103497.28;;;-0.26;91.08
3132;BME280;62090;52.330;9.104;2023-02-07T04:52:08;103520.28;;;-0.08;90.58
3132;BME280;62090;52.330;9.104;2023-02-07T04:54:38;103508.16;;;-0.19;90.74
3132;BME280;62090;52.330;9.104;2023-02-07T04:57:08;103490.81;;;-0.24;90.68
3132;BME280;62090;52.330;9.104;2023-02-07T04:59:37;103500.66;;;-0.19;90.34
3132;BME280;62090;52.330;9.104;2023-02-07T05:02:07;103468.38;;;-0.38;90.91
3132;BME280;62090;52.330;9.104;2023-02-07T05:04:37;103521.72;;;-0.10;90.75
3132;BME280;62090;52.330;9.104;2023-02-07T05:07:09;103476.81;;;-0.45;90.63
3132;BME280;62090;52.330;9.104;2023-02-07T05:09:39;103528.59;;;-0.23;91.75
3132;BME280;62090;52.330;9.104;2023-02-07T05:12:09;103458.28;;;-0.68;92.01
3132;BME280;62090;52.330;9.104;2023-02-07T05:14:38;103506.66;;;-0.39;91.94
3132;BME280;62090;52.330;9.104;2023-02-07T05:17:08;103509.47;;;-0.29;91.92
3132;BME280;62090;52.330;9.104;2023-02-07T05:19:39;103508.25;;;-0.33;91.40
3132;BME280;62090;52.330;9.104;2023-02-07T05:22:11;103517.78;;;-0.15;91.12
3132;BME280;62090;52.330;9.104;2023-02-07T05:24:41;103528.38;;;-0.17;90.51
3132;BME280;62090;52.330;9.104;2023-02-07T05:27:10;103448.06;;;-0.63;90.09
3132;BME280;62090;52.330;9.104;2023-02-07T05:29:40;103500.56;;;-0.42;90.18
3132;BME280;62090;52.330;9.104;2023-02-07T05:32:10;103512.34;;;-0.33;89.54
3132;BME280;62090;52.330;9.104;2023-02-07T05:34:53;103534.34;;;-0.31;88.85
3132;BME280;62090;52.330;9.104;2023-02-07T05:37:26;103514.03;;;-0.48;88.68
3132;BME280;62090;52.330;9.104;2023-02-07T05:39:55;103545.84;;;-0.47;88.32
3132;BME280;62090;52.330;9.104;2023-02-07T05:42:25;103498.91;;;-0.71;88.02
3132;BME280;62090;52.330;9.104;2023-02-07T05:44:55;103528.59;;;-0.74;88.41
3132;BME280;62090;52.330;9.104;2023-02-07T05:47:25;103544.50;;;-0.66;88.07
3132;BME280;62090;52.330;9.104;2023-02-07T05:49:54;103541.66;;;-0.69;88.74
3132;BME280;62090;52.330;9.104;2023-02-07T05:52:27;103540.44;;;-0.80;88.28
3132;BME280;62090;52.330;9.104;2023-02-07T05:54:56;103538.66;;;-0.88;89.79
3132;BME280;62090;52.330;9.104;2023-02-07T05:57:26;103555.97;;;-0.82;89.28
3132;BME280;62090;52.330;9.104;2023-02-07T05:59:56;103564.38;;;-0.82;89.98
3132;BME280;62090;52.330;9.104;2023-02-07T06:02:26;103536.34;;;-0.94;89.79
3132;BME280;62090;52.330;9.104;2023-02-07T06:04:55;103547.75;;;-0.89;90.27
3132;BME280;62090;52.330;9.104;2023-02-07T06:07:28;103534.72;;;-0.86;89.99
3132;BME280;62090;52.330;9.104;2023-02-07T06:09:57;103516.34;;;-1.01;88.87
3132;BME280;62090;52.330;9.104;2023-02-07T06:12:27;103507.41;;;-1.13;88.88
3132;BME280;62090;52.330;9.104;2023-02-07T06:14:57;103515.09;;;-1.11;88.93
3132;BME280;62090;52.330;9.104;2023-02-07T06:17:27;103557.78;;;-0.89;89.56
3132;BME280;62090;52.330;9.104;2023-02-07T06:19:56;103537.06;;;-1.09;89.56
3132;BME280;62090;52.330;9.104;2023-02-07T06:22:29;103543.50;;;-0.97;89.60
3132;BME280;62090;52.330;9.104;2023-02-07T06:24:58;103532.78;;;-1.03;88.26
3132;BME280;62090;52.330;9.104;2023-02-07T06:27:28;103558.66;;;-0.88;88.71
3132;BME280;62090;52.330;9.104;2023-02-07T06:29:58;103542.44;;;-1.06;88.28
3132;BME280;62090;52.330;9.104;2023-02-07T06:32:27;103535.31;;;-1.24;88.51
3132;BME280;62090;52.330;9.104;2023-02-07T06:35:00;103575.84;;;-1.19;88.98
3132;BME280;62090;52.330;9.104;2023-02-07T06:37:32;103559.78;;;-1.14;90.28
3132;BME280;62090;52.330;9.104;2023-02-07T06:40:03;103524.94;;;-1.34;89.38
3132;BME280;62090;52.330;9.104;2023-02-07T06:42:33;103571.75;;;-1.26;89.60
3132;BME280;62090;52.330;9.104;2023-02-07T06:45:02;103577.13;;;-1.23;90.88
3132;BME280;62090;52.330;9.104;2023-02-07T06:47:32;103553.34;;;-1.27;89.63
3132;BME280;62090;52.330;9.104;2023-02-07T06:50:02;103546.72;;;-1.40;90.45
3132;BME280;62090;52.330;9.104;2023-02-07T06:52:37;103590.69;;;-1.07;90.47
3132;BME280;62090;52.330;9.104;2023-02-07T06:55:07;103597.50;;;-1.13;91.05
3132;BME280;62090;52.330;9.104;2023-02-07T06:57:37;103562.81;;;-1.31;90.79
3132;BME280;62090;52.330;9.104;2023-02-07T07:00:08;103561.72;;;-1.26;91.17
3132;BME280;62090;52.330;9.104;2023-02-07T07:02:38;103582.81;;;-1.03;90.38
3132;BME280;62090;52.330;9.104;2023-02-07T07:05:08;103522.63;;;-1.40;89.36
3132;BME280;62090;52.330;9.104;2023-02-07T07:07:40;103562.81;;;-1.31;89.53
3132;BME280;62090;52.330;9.104;2023-02-07T07:10:10;103606.78;;;-1.12;90.02
3132;BME280;62090;52.330;9.104;2023-02-07T07:12:40;103591.59;;;-1.06;89.92
3132;BME280;62090;52.330;9.104;2023-02-07T07:15:10;103584.59;;;-1.16;89.71
3132;BME280;62090;52.330;9.104;2023-02-07T07:17:40;103605.50;;;-0.94;89.14
3132;BME280;62090;52.330;9.104;2023-02-07T07:20:10;103573.53;;;-1.25;89.58
3132;BME280;62090;52.330;9.104;2023-02-07T07:22:43;103585.34;;;-1.17;89.28
3132;BME280;62090;52.330;9.104;2023-02-07T07:25:13;103563.91;;;-1.22;89.17
3132;BME280;62090;52.330;9.104;2023-02-07T07:27:42;103605.88;;;-1.05;89.42
3132;BME280;62090;52.330;9.104;2023-02-07T07:30:13;103554.06;;;-1.27;90.29
3132;BME280;62090;52.330;9.104;2023-02-07T07:32:42;103564.09;;;-1.27;91.05
3132;BME280;62090;52.330;9.104;2023-02-07T07:35:12;103595.69;;;-0.93;90.32
3132;BME280;62090;52.330;9.104;2023-02-07T07:37:47;103623.72;;;-0.67;89.68
3132;BME280;62090;52.330;9.104;2023-02-07T07:40:17;103619.09;;;-0.71;90.04
3132;BME280;62090;52.330;9.104;2023-02-07T07:42:47;103607.84;;;-0.74;89.79
3132;BME280;62090;52.330;9.104;2023-02-07T07:45:30;103628.34;;;-0.63;89.06
3132;BME280;62090;52.330;9.104;2023-02-07T07:48:00;103637.16;;;-0.59;88.23
3132;BME280;62090;52.330;9.104;2023-02-07T07:50:29;103610.31;;;-0.67;88.34
3132;BME280;62090;52.330;9.104;2023-02-07T07:53:02;103566.00;;;-0.90;88.00
3132;BME280;62090;52.330;9.104;2023-02-07T07:55:31;103597.81;;;-0.74;88.14
3132;BME280;62090;52.330;9.104;2023-02-07T07:58:01;103618.94;;;-0.79;87.85
3132;BME280;62090;52.330;9.104;2023-02-07T08:00:31;103628.53;;;-0.68;88.43
3132;BME280;62090;52.330;9.104;2023-02-07T08:03:01;103482.25;;;-1.43;88.15
3132;BME280;62090;52.330;9.104;2023-02-07T08:05:30;103577.97;;;-0.80;88.31
3132;BME280;62090;52.330;9.104;2023-02-07T08:08:03;103633.50;;;-0.40;88.55
3132;BME280;62090;52.330;9.104;2023-02-07T08:10:33;103606.72;;;-0.48;89.39
3132;BME280;62090;52.330;9.104;2023-02-07T08:13:03;103631.72;;;-0.27;90.06
3132;BME280;62090;52.330;9.104;2023-02-07T08:15:34;103625.94;;;-0.26;89.54
3132;BME280;62090;52.330;9.104;2023-02-07T08:18:05;103616.88;;;-0.39;89.66
3132;BME280;62090;52.330;9.104;2023-02-07T08:20:35;103626.88;;;-0.32;89.63
3132;BME280;62090;52.330;9.104;2023-02-07T08:23:07;103597.16;;;-0.36;89.48
3132;BME280;62090;52.330;9.104;2023-02-07T08:25:37;103617.53;;;-0.26;90.03
3132;BME280;62090;52.330;9.104;2023-02-07T08:28:07;103465.59;;;-1.07;91.42
3132;BME280;62090;52.330;9.104;2023-02-07T08:30:37;103609.06;;;-0.06;91.48
3132;BME280;62090;52.330;9.104;2023-02-07T08:33:07;103588.16;;;-0.13;90.74
3132;BME280;62090;52.330;9.104;2023-02-07T08:35:37;103586.72;;;-0.11;91.82
3132;BME280;62090;52.330;9.104;2023-02-07T08:38:10;103598.59;;;0.06;92.03
3132;BME280;62090;52.330;9.104;2023-02-07T08:40:40;103557.56;;;-0.18;92.58
3132;BME280;62090;52.330;9.104;2023-02-07T08:43:10;103607.19;;;0.15;92.30
3132;BME280;62090;52.330;9.104;2023-02-07T08:45:42;103597.28;;;0.23;91.99
3132;BME280;62090;52.330;9.104;2023-02-07T08:48:14;103572.22;;;0.16;92.06
3132;BME280;62090;52.330;9.104;2023-02-07T08:50:44;103549.13;;;0.19;91.75
3132;BME280;62090;52.330;9.104;2023-02-07T08:53:16;103556.44;;;0.24;91.65
3132;BME280;62090;52.330;9.104;2023-02-07T08:55:46;103553.22;;;0.25;92.10
3132;BME280;62090;52.330;9.104;2023-02-07T08:58:16;103534.38;;;0.29;91.89
3132;BME280;62090;52.330;9.104;2023-02-07T09:00:46;103556.78;;;0.50;91.54
3132;BME280;62090;52.330;9.104;2023-02-07T09:03:16;103589.56;;;0.74;91.44
3132;BME280;62090;52.330;9.104;2023-02-07T09:05:45;103583.56;;;0.65;90.94
3132;BME280;62090;52.330;9.104;2023-02-07T09:08:18;103493.75;;;0.24;91.06
3132;BME280;62090;52.330;9.104;2023-02-07T09:10:48;103568.19;;;0.62;92.58
3132;BME280;62090;52.330;9.104;2023-02-07T09:13:17;103508.97;;;0.26;92.71
3132;BME280;62090;52.330;9.104;2023-02-07T09:15:52;103575.97;;;0.72;92.61
3132;BME280;62090;52.330;9.104;2023-02-07T09:18:22;103588.81;;;0.82;92.50
3132;BME280;62090;52.330;9.104;2023-02-07T09:20:52;103588.75;;;0.90;92.90
3132;BME280;62090;52.330;9.104;2023-02-07T09:23:24;103568.94;;;0.77;93.23
3132;BME280;62090;52.330;9.104;2023-02-07T09:25:59;103536.81;;;0.59;93.62
3132;BME280;62090;52.330;9.104;2023-02-07T09:28:29;103544.88;;;0.40;94.47
3132;BME280;62090;52.330;9.104;2023-02-07T09:30:59;103555.78;;;0.64;94.58
3132;BME280;62090;52.330;9.104;2023-02-07T09:33:31;103560.53;;;0.76;94.25
3132;BME280;62090;52.330;9.104;2023-02-07T09:36:01;103464.16;;;0.29;94.09
3132;BME280;62090;52.330;9.104;2023-02-07T09:38:33;103586.44;;;1.07;93.92
3132;BME280;62090;52.330;9.104;2023-02-07T09:41:03;103540.84;;;0.72;94.67
3132;BME280;62090;52.330;9.104;2023-02-07T09:43:52;103584.94;;;1.32;95.84
3132;BME280;62090;52.330;9.104;2023-02-07T09:46:27;103588.91;;;1.45;95.47
3132;BME280;62090;52.330;9.104;2023-02-07T09:49:04;103585.28;;;1.66;95.08
3132;BME280;62090;52.330;9.104;2023-02-07T09:51:35;103586.88;;;1.65;94.08
3132;BME280;62090;52.330;9.104;2023-02-07T09:54:17;103523.66;;;1.22;93.78
3132;BME280;62090;52.330;9.104;2023-02-07T09:56:50;103575.41;;;1.52;92.37
3132;BME280;62090;52.330;9.104;2023-02-07T09:59:25;103585.69;;;1.62;91.64
3132;BME280;62090;52.330;9.104;2023-02-07T10:02:00;103560.22;;;1.43;90.56
3132;BME280;62090;52.330;9.104;2023-02-07T10:04:35;103541.19;;;1.45;90.26
3132;BME280;62090;52.330;9.104;2023-02-07T10:07:10;103529.34;;;1.44;88.64
3132;BME280;62090;52.330;9.104;2023-02-07T10:09:44;103596.69;;;1.87;88.14
3132;BME280;62090;52.330;9.104;2023-02-07T10:12:33;103592.56;;;1.87;87.01
3132;BME280;62090;52.330;9.104;2023-02-07T10:15:25;103550.31;;;1.60;85.30
3132;BME280;62090;52.330;9.104;2023-02-07T10:18:13;103511.84;;;1.37;85.38
3132;BME280;62090;52.330;9.104;2023-02-07T10:20:52;103561.25;;;1.77;85.07
3132;BME280;62090;52.330;9.104;2023-02-07T10:23:37;103585.06;;;1.96;83.77
3132;BME280;62090;52.330;9.104;2023-02-07T10:26:21;103567.84;;;1.83;84.58
3132;BME280;62090;52.330;9.104;2023-02-07T10:29:15;103547.25;;;1.79;85.61
3132;BME280;62090;52.330;9.104;2023-02-07T10:31:51;103555.91;;;1.89;85.94
3132;BME280;62090;52.330;9.104;2023-02-07T10:34:26;103580.19;;;2.13;85.85
3132;BME280;62090;52.330;9.104;2023-02-07T10:36:57;103545.91;;;1.98;86.26
3132;BME280;62090;52.330;9.104;2023-02-07T10:39:30;103597.00;;;2.30;85.54
3132;BME280;62090;52.330;9.104;2023-02-07T10:42:04;103554.13;;;2.12;85.34
3132;BME280;62090;52.330;9.104;2023-02-07T10:44:34;103527.22;;;1.96;84.84
3132;BME280;62090;52.330;9.104;2023-02-07T10:47:04;103564.34;;;2.14;84.93
3132;BME280;62090;52.330;9.104;2023-02-07T10:49:36;103559.22;;;2.21;84.72
3132;BME280;62090;52.330;9.104;2023-02-07T10:52:16;103546.69;;;2.30;84.93
3132;BME280;62090;52.330;9.104;2023-02-07T10:54:49;103558.38;;;2.29;83.54
3132;BME280;62090;52.330;9.104;2023-02-07T10:57:23;103589.75;;;2.48;83.59
3132;BME280;62090;52.330;9.104;2023-02-07T10:59:59;103585.22;;;2.62;85.21
3132;BME280;62090;52.330;9.104;2023-02-07T11:02:39;103546.47;;;2.77;82.88
3132;BME280;62090;52.330;9.104;2023-02-07T11:05:36;103583.25;;;2.92;81.83
3132;BME280;62090;52.330;9.104;2023-02-07T11:08:25;103491.19;;;2.28;81.77
3132;BME280;62090;52.330;9.104;2023-02-07T11:10:56;103588.56;;;2.78;83.28
3132;BME280;62090;52.330;9.104;2023-02-07T11:13:29;103579.47;;;2.71;83.33
3132;BME280;62090;52.330;9.104;2023-02-07T11:16:01;103504.69;;;2.04;84.10
3132;BME280;62090;52.330;9.104;2023-02-07T11:18:37;103572.31;;;2.59;85.75
3132;BME280;62090;52.330;9.104;2023-02-07T11:21:25;103554.28;;;2.63;85.23
3132;BME280;62090;52.330;9.104;2023-02-07T11:23:59;103577.59;;;2.86;83.72
3132;BME280;62090;52.330;9.104;2023-02-07T11:26:30;103554.44;;;2.64;84.20
3132;BME280;62090;52.330;9.104;2023-02-07T11:29:05;103524.63;;;2.60;83.28
3132;BME280;62090;52.330;9.104;2023-02-07T11:31:41;103540.34;;;2.58;84.05
3132;BME280;62090;52.330;9.104;2023-02-07T11:34:28;103579.31;;;2.70;83.78
3132;BME280;62090;52.330;9.104;2023-02-07T11:37:09;103559.41;;;2.80;84.09
3132;BME280;62090;52.330;9.104;2023-02-07T11:39:40;103566.13;;;3.05;82.44
3132;BME280;62090;52.330;9.104;2023-02-07T11:42:13;103541.06;;;2.98;82.06
3132;BME280;62090;52.330;9.104;2023-02-07T11:44:47;103555.63;;;3.01;82.46
3132;BME280;62090;52.330;9.104;2023-02-07T11:47:19;103544.19;;;3.04;82.04
3132;BME280;62090;52.330;9.104;2023-02-07T11:49:53;103546.16;;;3.15;81.85
3132;BME280;62090;52.330;9.104;2023-02-07T11:52:25;103564.13;;;3.35;81.58
3132;BME280;62090;52.330;9.104;2023-02-07T11:54:58;103570.06;;;3.27;82.44
3132;BME280;62090;52.330;9.104;2023-02-07T11:57:31;103557.75;;;3.30;82.15
3132;BME280;62090;52.330;9.104;2023-02-07T12:00:06;103565.63;;;3.42;81.43
3132;BME280;62090;52.330;9.104;2023-02-07T12:02:49;103532.69;;;3.32;82.07
3132;BME280;62090;52.330;9.104;2023-02-07T12:05:21;103561.47;;;3.60;81.77
3132;BME280;62090;52.330;9.104;2023-02-07T12:07:58;103541.63;;;3.54;81.57
3132;BME280;62090;52.330;9.104;2023-02-07T12:10:31;103557.34;;;3.69;81.14
3132;BME280;62090;52.330;9.104;2023-02-07T12:13:05;103543.22;;;3.71;81.43
3132;BME280;62090;52.330;9.104;2023-02-07T12:15:41;103506.03;;;3.43;79.63
3132;BME280;62090;52.330;9.104;2023-02-07T12:18:19;103520.41;;;3.52;81.10
3132;BME280;62090;52.330;9.104;2023-02-07T12:20:56;103540.13;;;3.82;81.24
3132;BME280;62090;52.330;9.104;2023-02-07T12:23:36;103538.34;;;3.81;80.32
3132;BME280;62090;52.330;9.104;2023-02-07T12:26:16;103513.88;;;3.71;79.82
3132;BME280;62090;52.330;9.104;2023-02-07T12:28:53;103522.34;;;3.80;79.98
3132;BME280;62090;52.330;9.104;2023-02-07T12:31:48;103520.41;;;3.78;79.40
3132;BME280;62090;52.330;9.104;2023-02-07T12:34:24;103519.47;;;3.86;79.73
3132;BME280;62090;52.330;9.104;2023-02-07T12:37:00;103523.94;;;3.89;79.66
3132;BME280;62090;52.330;9.104;2023-02-07T12:39:38;103534.75;;;4.05;79.39
3132;BME280;62090;52.330;9.104;2023-02-07T12:42:20;103532.09;;;4.12;78.30
3132;BME280;62090;52.330;9.104;2023-02-07T12:44:55;103525.25;;;4.02;79.09
3132;BME280;62090;52.330;9.104;2023-02-07T12:47:39;103527.78;;;4.11;79.21
3132;BME280;62090;52.330;9.104;2023-02-07T12:50:17;103505.38;;;3.97;79.88
3132;BME280;62090;52.330;9.104;2023-02-07T12:52:59;103512.78;;;4.12;80.05
3132;BME280;62090;52.330;9.104;2023-02-07T12:55:40;103490.38;;;4.07;79.01
3132;BME280;62090;52.330;9.104;2023-02-07T12:58:26;103488.72;;;4.16;79.09
3132;BME280;62090;52.330;9.104;2023-02-07T13:01:04;103517.31;;;4.34;78.94
3132;BME280;62090;52.330;9.104;2023-02-07T13:03:54;103504.38;;;4.39;78.03
3132;BME280;62090;52.330;9.104;2023-02-07T13:06:30;103510.47;;;4.41;77.54
3132;BME280;62090;52.330;9.104;2023-02-07T13:09:09;103499.47;;;4.41;76.92
3132;BME280;62090;52.330;9.104;2023-02-07T13:11:49;103466.66;;;4.68;78.56
3132;BME280;62090;52.330;9.104;2023-02-07T13:14:30;103468.78;;;4.63;75.84
3132;BME280;62090;52.330;9.104;2023-02-07T13:17:21;103490.97;;;4.76;75.31
3132;BME280;62090;52.330;9.104;2023-02-07T13:20:04;103487.72;;;4.77;74.65
3132;BME280;62090;52.330;9.104;2023-02-07T13:22:38;103483.06;;;4.82;75.39
3132;BME280;62090;52.330;9.104;2023-02-07T13:25:15;103463.06;;;4.75;76.44
3132;BME280;62090;52.330;9.104;2023-02-07T13:27:48;103477.19;;;4.73;76.06
3132;BME280;62090;52.330;9.104;2023-02-07T13:30:20;103494.94;;;4.64;76.79
3132;BME280;62090;52.330;9.104;2023-02-07T13:32:51;103435.00;;;4.44;75.96
3132;BME280;62090;52.330;9.104;2023-02-07T13:35:27;103480.53;;;4.82;76.30
3132;BME280;62090;52.330;9.104;2023-02-07T13:38:05;103478.00;;;4.90;75.82
3132;BME280;62090;52.330;9.104;2023-02-07T13:40:48;103488.94;;;4.99;75.21